createdAt,value
2019-04-26T00:04:48.429Z,57.7
2019-04-26T00:09:48.376Z,59.9
2019-04-26T00:14:48.446Z,59.5
2019-04-26T00:19:48.690Z,59.7
2019-04-26T00:24:48.305Z,59.4
2019-04-26T00:29:48.281Z,60.2
2019-04-26T00:34:48.484Z,60.7
2019-04-26T00:39:48.497Z,61
2019-04-26T00:44:48.423Z,60.6
2019-04-26T00:49:48.274Z,60.4
2019-04-26T00:54:48.506Z,62.1
2019-04-26T00:59:48.427Z,61.7
2019-04-26T01:04:48.270Z,62.9
2019-04-26T01:09:48.456Z,62.8
2019-04-26T01:14:48.389Z,62.8
2019-04-26T01:19:48.256Z,63.5
2019-04-26T01:24:48.262Z,62.4
2019-04-26T01:29:48.491Z,64.8
2019-04-26T01:39:48.261Z,65.1
2019-04-26T01:44:48.528Z,64.5
2019-04-26T01:49:48.448Z,63.8
2019-04-26T01:54:48.461Z,65.6
2019-04-26T01:59:48.517Z,65.9
2019-04-26T02:04:48.533Z,65.7
2019-04-26T02:09:48.487Z,65.2
2019-04-26T02:14:48.464Z,66.2
2019-04-26T02:19:48.562Z,65.3
2019-04-26T02:24:48.469Z,65.3
2019-04-26T02:29:48.330Z,65.5
2019-04-26T02:34:48.566Z,66.9
2019-04-26T02:39:48.527Z,66.1
2019-04-26T02:44:48.530Z,66.5
2019-04-26T02:49:48.370Z,67
2019-04-26T02:54:48.490Z,67.9
2019-04-26T02:59:48.354Z,68
2019-04-26T03:04:48.349Z,69.4
2019-04-26T03:09:48.611Z,68.7
2019-04-26T03:14:48.376Z,67.9
2019-04-26T03:19:48.613Z,68.8
2019-04-26T03:24:49.148Z,68.7
2019-04-26T03:29:48.374Z,68.2
2019-04-26T03:34:55.422Z,67.7
2019-04-26T03:39:48.345Z,69
2019-04-26T03:44:48.516Z,68
2019-04-26T03:49:48.525Z,69.3
2019-04-26T03:54:48.286Z,70
2019-04-26T03:59:48.495Z,70.2
2019-04-26T04:04:48.528Z,70.4
2019-04-26T04:09:48.335Z,70.1
2019-04-26T04:14:49.204Z,70.4
2019-04-26T04:19:48.508Z,70.9
2019-04-26T04:24:49.014Z,71.6
2019-04-26T04:29:55.934Z,71.1
2019-04-26T04:34:49.893Z,70.8
2019-04-26T04:39:50.250Z,70.8
2019-04-26T04:44:50.201Z,71.1
2019-04-26T04:49:52.916Z,71
2019-04-26T04:55:08.061Z,70
2019-04-26T04:59:48.535Z,71.3
2019-04-26T05:04:49.211Z,72.3
2019-04-26T05:09:49.467Z,70.9
2019-04-26T05:14:48.584Z,70
2019-04-26T05:19:48.767Z,70.3
2019-04-26T05:24:49.323Z,71.2
2019-04-26T05:29:48.527Z,71.6
2019-04-26T05:34:49.298Z,70.8
2019-04-26T05:39:49.415Z,70
2019-04-26T05:44:49.763Z,70
2019-04-26T05:49:51.692Z,70.1
2019-04-26T05:54:49.586Z,68.8
2019-04-26T05:59:48.524Z,69
2019-04-26T06:04:48.632Z,70.1
2019-04-26T06:09:48.557Z,68.2
2019-04-26T06:14:48.578Z,67.3
2019-04-26T06:19:48.620Z,68
2019-04-26T06:24:48.657Z,68.7
2019-04-26T06:29:48.582Z,68.6
2019-04-26T06:34:48.431Z,67.5
2019-04-26T06:39:48.421Z,68
2019-04-26T06:44:48.592Z,66.8
2019-04-26T06:49:48.623Z,66.7
2019-04-26T06:54:48.654Z,66.1
2019-04-26T06:59:48.582Z,65.8
2019-04-26T07:04:48.567Z,65
2019-04-26T07:09:48.648Z,66.4
2019-04-26T07:14:48.579Z,65.5
2019-04-26T07:19:48.426Z,67.6
2019-04-26T07:24:48.472Z,65.3
2019-04-26T07:29:48.695Z,64.4
2019-04-26T07:34:48.603Z,64.6
2019-04-26T07:39:48.463Z,64.2
2019-04-26T07:44:48.727Z,63.8
2019-04-26T07:49:48.448Z,64.4
2019-04-26T07:54:48.660Z,64.2
2019-04-26T07:59:48.761Z,63.7
2019-04-26T08:04:48.486Z,63.8
2019-04-26T08:10:00.168Z,64.8
2019-04-26T08:14:48.483Z,65.9
2019-04-26T08:19:48.474Z,63.3
2019-04-26T08:24:48.661Z,65.5
2019-04-26T08:29:49.343Z,64
2019-04-26T08:34:48.723Z,63.5
2019-04-26T08:39:52.181Z,62.3
2019-04-26T08:44:51.292Z,65.4
2019-04-26T08:49:48.721Z,63.7
2019-04-26T08:54:48.490Z,61.3
2019-04-26T08:59:48.681Z,60.2
2019-04-26T09:04:48.489Z,59.8
2019-04-26T09:10:01.417Z,59.6
2019-04-26T09:14:48.562Z,58.8
2019-04-26T09:19:48.731Z,59.4
2019-04-26T09:24:48.675Z,58.3
2019-04-26T09:29:48.691Z,57.7
2019-04-26T09:34:48.512Z,57
2019-04-26T09:39:48.648Z,57.5
2019-04-26T09:44:48.654Z,58.4
2019-04-26T09:49:48.730Z,58.8
2019-04-26T09:54:48.760Z,56.9
2019-04-26T09:59:48.471Z,56.1
2019-04-26T10:04:48.722Z,54.3
2019-04-26T10:09:56.045Z,52.7
2019-04-26T10:14:48.689Z,52.8
2019-04-26T10:19:48.568Z,52.3
2019-04-26T10:24:48.563Z,52.3
2019-04-26T10:29:48.549Z,51.3
2019-04-26T10:34:49.170Z,52.2
2019-04-26T10:39:48.776Z,50.3
2019-04-26T10:44:48.786Z,48.3
2019-04-26T10:49:48.600Z,46.9
2019-04-26T10:54:48.768Z,47.2
2019-04-26T10:59:48.813Z,48
2019-04-26T11:04:48.724Z,48.6
2019-04-26T11:09:48.718Z,48.2
2019-04-26T11:14:48.739Z,50.2
2019-04-26T11:19:48.561Z,48.7
2019-04-26T11:24:53.726Z,50.3
2019-04-26T11:29:54.346Z,51.1
2019-04-26T11:34:48.923Z,50.5
2019-04-26T11:39:48.804Z,51.2
2019-04-26T11:44:48.869Z,51.8
2019-04-26T11:49:50.455Z,51.5
2019-04-26T11:54:55.109Z,51.8
2019-04-26T11:59:49.592Z,51.9
2019-04-26T12:04:53.668Z,52.5
2019-04-26T12:09:48.602Z,51.9
2019-04-26T12:14:48.569Z,52.7
2019-04-26T12:19:53.380Z,51.6
2019-04-26T12:24:48.739Z,51.5
2019-04-26T12:29:50.104Z,51.4
2019-04-26T12:34:48.628Z,51.2
2019-04-26T12:39:48.632Z,51.9
2019-04-26T12:44:48.698Z,51.6
2019-04-26T12:49:48.564Z,52.1
2019-04-26T12:54:48.877Z,52.5
2019-04-26T12:59:48.790Z,52
2019-04-26T13:04:48.847Z,52.2
2019-04-26T13:09:48.629Z,52.2
2019-04-26T13:14:48.614Z,50.2
2019-04-26T13:19:55.466Z,51.7
2019-04-26T13:24:48.669Z,50.6
2019-04-26T13:30:02.771Z,49.9
2019-04-26T13:34:48.828Z,49.7
2019-04-26T13:39:55.142Z,50.1
2019-04-26T13:44:48.900Z,50.6
2019-04-26T13:49:53.443Z,48.8
2019-04-26T13:54:55.338Z,49.3
2019-04-26T13:59:48.648Z,48.4
2019-04-26T14:04:53.950Z,46.5
2019-04-26T14:09:48.860Z,46.6
2019-04-26T14:14:48.912Z,46.9
2019-04-26T14:19:51.077Z,47.6
2019-04-26T14:24:48.873Z,47.9
2019-04-26T14:29:48.811Z,47.9
2019-04-26T14:34:48.667Z,47.6
2019-04-26T14:39:51.270Z,47.6
2019-04-26T14:44:50.128Z,47.3
2019-04-26T14:49:48.667Z,48.6
2019-04-26T14:54:48.692Z,48.8
2019-04-26T14:59:48.921Z,49.8
2019-04-26T15:04:48.928Z,49.5
2019-04-26T15:09:48.840Z,51.1
2019-04-26T15:14:56.566Z,51.7
2019-04-26T15:19:48.940Z,52.8
2019-04-26T15:24:48.848Z,52.7
2019-04-26T15:29:48.710Z,54.1
2019-04-26T15:34:48.843Z,54.9
2019-04-26T15:39:54.998Z,55.4
2019-04-26T15:44:48.887Z,56.7
2019-04-26T15:49:48.947Z,56.4
2019-04-26T15:54:52.784Z,58.4
2019-04-26T15:59:48.876Z,61.3
2019-04-26T16:04:54.541Z,64.5
2019-04-26T16:09:53.776Z,65.4
2019-04-26T16:14:48.715Z,67.3
2019-04-26T16:19:48.947Z,66.3
2019-04-26T16:24:53.104Z,65.9
2019-04-26T16:29:58.427Z,67
2019-04-26T16:34:49.193Z,65.8
2019-04-26T16:39:49.125Z,65.5
2019-04-26T16:44:48.834Z,64.9
2019-04-26T16:49:49.067Z,66.2
2019-04-26T16:54:48.748Z,69.1
2019-04-26T16:59:59.865Z,70.2
2019-04-26T17:04:49.085Z,70.5
2019-04-26T17:09:59.868Z,70.4
2019-04-26T17:14:49.342Z,70.4
2019-04-26T17:19:48.761Z,69.3
2019-04-26T17:24:48.850Z,70.3
2019-04-26T17:29:48.791Z,70.7
2019-04-26T17:34:48.918Z,69.1
2019-04-26T17:39:55.324Z,69.4
2019-04-26T17:44:49.002Z,69.1
2019-04-26T17:49:52.542Z,68.9
2019-04-26T17:54:51.990Z,67.9
2019-04-26T17:59:51.585Z,68
2019-04-26T18:05:03.453Z,67
2019-04-26T18:09:52.629Z,67.9
2019-04-26T18:14:48.993Z,67.7
2019-04-26T18:19:49.025Z,67.8
2019-04-26T18:24:49.014Z,67.9
2019-04-26T18:29:49.403Z,67.7
2019-04-26T18:34:48.828Z,67.4
2019-04-26T18:39:48.854Z,66.8
2019-04-26T18:44:49.354Z,66.7
2019-04-26T18:49:58.365Z,67
2019-04-26T18:54:52.477Z,66.9
2019-04-26T18:59:52.916Z,66.6
2019-04-26T19:04:50.012Z,67.2
2019-04-26T19:10:04.758Z,66.5
2019-04-26T19:15:03.037Z,67.2
2019-04-26T19:19:51.485Z,66.6
2019-04-26T19:24:54.030Z,66.8
2019-04-26T19:29:49.083Z,66.8
2019-04-26T19:34:49.069Z,66.9
2019-04-26T19:39:49.127Z,67
2019-04-26T19:45:11.419Z,66.1
2019-04-26T19:49:48.923Z,65.9
2019-04-26T19:54:53.012Z,66.4
2019-04-26T19:59:49.110Z,66.4
2019-04-26T20:04:49.113Z,65.9
2019-04-26T20:09:49.082Z,65.7
2019-04-26T20:14:58.115Z,66.5
2019-04-26T20:19:55.360Z,66.2
2019-04-26T20:24:57.520Z,66.4
2019-04-26T20:29:49.750Z,66.7
2019-04-26T20:34:50.264Z,66.9
2019-04-26T20:40:17.917Z,67.3
2019-04-26T20:44:53.756Z,67.8
2019-04-26T20:50:02.851Z,68.3
2019-04-26T20:54:54.130Z,67.3
2019-04-26T21:00:03.123Z,68.2
2019-04-26T21:04:49.064Z,67.7
2019-04-26T21:09:48.893Z,67.9
2019-04-26T21:14:49.122Z,67.3
2019-04-26T21:19:54.764Z,67.6
2019-04-26T21:24:55.228Z,67.2
2019-04-26T21:30:00.667Z,66.5
2019-04-26T21:34:53.452Z,66.4
2019-04-26T21:39:49.046Z,67.1
2019-04-26T21:44:54.840Z,67
2019-04-26T21:50:00.233Z,67.2
2019-04-26T21:54:56.445Z,66.9
2019-04-26T21:59:49.095Z,66.2
2019-04-26T22:04:49.079Z,66.8
2019-04-26T22:09:49.050Z,65.6
2019-04-26T22:14:55.644Z,66.1
2019-04-26T22:19:49.279Z,65.7
2019-04-26T22:24:48.897Z,65.3
2019-04-26T22:29:53.355Z,65.8
2019-04-26T22:34:48.916Z,65.6
2019-04-26T22:39:49.044Z,66.1
2019-04-26T22:44:49.105Z,65.2
2019-04-26T22:49:49.070Z,65.2
2019-04-26T22:54:49.077Z,66.3
2019-04-26T22:59:50.786Z,65.2
2019-04-26T23:04:49.247Z,65.4
2019-04-26T23:09:55.328Z,65.3
2019-04-26T23:14:55.030Z,64.8
2019-04-26T23:19:54.080Z,65.4
2019-04-26T23:24:54.307Z,64.5
2019-04-26T23:29:54.912Z,64.9
2019-04-26T23:34:48.957Z,64.3
2019-04-26T23:39:51.097Z,65.6
2019-04-26T23:44:48.996Z,64.1
2019-04-26T23:49:53.746Z,64.5
2019-04-26T23:54:50.794Z,65
2019-04-26T23:59:56.267Z,65
